sensor_id;sensor_type;location;lat;lon;timestamp;pressure;altitude;pressure_sealevel;temperature;humidity
46015;BME280;36844;51.898;-0.874;2023-04-30T00:00:23;101060.41;;;18.80;
46015;BME280;36844;51.898;-0.874;2023-04-30T00:02:49;101062.72;;;18.77;
46015;BME280;36844;51.898;-0.874;2023-04-30T00:05:14;101058.09;;;18.78;
46015;BME280;36844;51.898;-0.874;2023-04-30T00:07:40;101061.97;;;18.77;
46015;BME280;36844;51.898;-0.874;2023-04-30T00:10:07;101060.44;;;18.76;
46015;BME280;36844;51.898;-0.874;2023-04-30T00:12:32;101059.66;;;18.75;
46015;BME280;36844;51.898;-0.874;2023-04-30T00:14:57;101058.88;;;18.75;
46015;BME280;36844;51.898;-0.874;2023-04-30T00:17:22;101053.88;;;18.73;
46015;BME280;36844;51.898;-0.874;2023-04-30T00:19:48;101056.59;;;18.73;
46015;BME280;36844;51.898;-0.874;2023-04-30T00:22:14;101060.44;;;18.72;
46015;BME280;36844;51.898;-0.874;2023-04-30T00:24:39;101064.25;;;18.71;
46015;BME280;36844;51.898;-0.874;2023-04-30T00:27:04;101059.28;;;18.70;
46015;BME280;36844;51.898;-0.874;2023-04-30T00:29:29;101070.06;;;18.70;
46015;BME280;36844;51.898;-0.874;2023-04-30T00:31:55;101061.19;;;18.69;
46015;BME280;36844;51.898;-0.874;2023-04-30T00:34:20;101063.13;;;18.69;
46015;BME280;36844;51.898;-0.874;2023-04-30T00:36:45;101058.88;;;18.68;
46015;BME280;36844;51.898;-0.874;2023-04-30T00:39:10;101056.16;;;18.68;
46015;BME280;36844;51.898;-0.874;2023-04-30T00:41:35;101072.78;;;18.66;
46015;BME280;36844;51.898;-0.874;2023-04-30T00:44:01;101050.41;;;18.66;
46015;BME280;36844;51.898;-0.874;2023-04-30T00:46:26;101053.13;;;18.66;
46015;BME280;36844;51.898;-0.874;2023-04-30T00:48:52;101050.78;;;18.64;
46015;BME280;36844;51.898;-0.874;2023-04-30T00:51:17;101052.31;;;18.65;
46015;BME280;36844;51.898;-0.874;2023-04-30T00:53:42;101046.53;;;18.63;
46015;BME280;36844;51.898;-0.874;2023-04-30T00:56:08;101046.53;;;18.63;
46015;BME280;36844;51.898;-0.874;2023-04-30T00:58:34;101045.00;;;18.62;
46015;BME280;36844;51.898;-0.874;2023-04-30T01:00:59;101039.97;;;18.61;
46015;BME280;36844;51.898;-0.874;2023-04-30T01:03:25;101042.69;;;18.61;
46015;BME280;36844;51.898;-0.874;2023-04-30T01:05:50;101038.41;;;18.60;
46015;BME280;36844;51.898;-0.874;2023-04-30T01:08:15;101038.41;;;18.60;
46015;BME280;36844;51.898;-0.874;2023-04-30T01:10:43;101041.13;;;18.60;
46015;BME280;36844;51.898;-0.874;2023-04-30T01:13:21;101043.81;;;18.60;
46015;BME280;36844;51.898;-0.874;2023-04-30T01:15:58;101044.22;;;18.58;
46015;BME280;36844;51.898;-0.874;2023-04-30T01:18:26;101044.59;;;18.57;
46015;BME280;36844;51.898;-0.874;2023-04-30T01:20:53;101041.91;;;18.57;
46015;BME280;36844;51.898;-0.874;2023-04-30T01:25:52;101047.69;;;18.55;
46015;BME280;36844;51.898;-0.874;2023-04-30T01:28:18;101053.84;;;18.56;
46015;BME280;36844;51.898;-0.874;2023-04-30T01:30:44;101050.00;;;18.50;
46015;BME280;36844;51.898;-0.874;2023-04-30T01:33:10;101052.69;;;18.53;
46015;BME280;36844;51.898;-0.874;2023-04-30T01:40:28;101046.50;;;18.53;
46015;BME280;36844;51.898;-0.874;2023-04-30T01:50:29;101050.00;;;18.50;
46015;BME280;36844;51.898;-0.874;2023-04-30T01:53:01;101044.59;;;18.50;
46015;BME280;36844;51.898;-0.874;2023-04-30T01:55:33;101046.50;;;18.49;
46015;BME280;36844;51.898;-0.874;2023-04-30T01:58:01;101045.75;;;18.49;
46015;BME280;36844;51.898;-0.874;2023-04-30T02:00:27;101046.50;;;18.49;
46015;BME280;36844;51.898;-0.874;2023-04-30T02:02:54;101044.97;;;18.48;
46015;BME280;36844;51.898;-0.874;2023-04-30T02:05:19;101041.50;;;18.48;
46015;BME280;36844;51.898;-0.874;2023-04-30T02:07:46;101032.63;;;18.47;
46015;BME280;36844;51.898;-0.874;2023-04-30T02:10:12;101035.34;;;18.47;
46015;BME280;36844;51.898;-0.874;2023-04-30T02:12:37;101033.81;;;18.46;
46015;BME280;36844;51.898;-0.874;2023-04-30T02:15:03;101038.41;;;18.46;
46015;BME280;36844;51.898;-0.874;2023-04-30T02:17:29;101034.19;;;18.45;
46015;BME280;36844;51.898;-0.874;2023-04-30T02:19:54;101034.97;;;18.45;
46015;BME280;36844;51.898;-0.874;2023-04-30T02:22:19;101033.03;;;18.46;
46015;BME280;36844;51.898;-0.874;2023-04-30T02:24:44;101032.63;;;18.44;
46015;BME280;36844;51.898;-0.874;2023-04-30T02:27:10;101032.63;;;18.44;
46015;BME280;36844;51.898;-0.874;2023-04-30T02:29:35;101031.09;;;18.43;
46015;BME280;36844;51.898;-0.874;2023-04-30T02:32:00;101031.09;;;18.43;
46015;BME280;36844;51.898;-0.874;2023-04-30T02:34:25;101031.09;;;18.43;
46015;BME280;36844;51.898;-0.874;2023-04-30T02:36:51;101028.78;;;18.41;
46015;BME280;36844;51.898;-0.874;2023-04-30T02:39:16;101028.78;;;18.41;
46015;BME280;36844;51.898;-0.874;2023-04-30T02:41:41;101032.63;;;18.40;
46015;BME280;36844;51.898;-0.874;2023-04-30T02:44:06;101031.84;;;18.40;
46015;BME280;36844;51.898;-0.874;2023-04-30T02:46:32;101034.53;;;18.40;
46015;BME280;36844;51.898;-0.874;2023-04-30T02:48:57;101024.94;;;18.39;
46015;BME280;36844;51.898;-0.874;2023-04-30T02:51:22;101029.56;;;18.38;
46015;BME280;36844;51.898;-0.874;2023-04-30T02:53:47;101034.97;;;18.38;
46015;BME280;36844;51.898;-0.874;2023-04-30T02:56:13;101029.56;;;18.38;
46015;BME280;36844;51.898;-0.874;2023-04-30T02:58:38;101033.41;;;18.37;
46015;BME280;36844;51.898;-0.874;2023-04-30T03:01:04;101038.81;;;18.37;
46015;BME280;36844;51.898;-0.874;2023-04-30T03:03:29;101040.72;;;18.37;
46015;BME280;36844;51.898;-0.874;2023-04-30T03:05:54;101039.16;;;18.36;
46015;BME280;36844;51.898;-0.874;2023-04-30T03:08:23;101038.41;;;18.35;
46015;BME280;36844;51.898;-0.874;2023-04-30T03:10:48;101040.34;;;18.35;
46015;BME280;36844;51.898;-0.874;2023-04-30T03:13:13;101031.50;;;18.34;
46015;BME280;36844;51.898;-0.874;2023-04-30T03:15:38;101033.41;;;18.34;
46015;BME280;36844;51.898;-0.874;2023-04-30T03:18:04;101029.16;;;18.33;
46015;BME280;36844;51.898;-0.874;2023-04-30T03:20:29;101031.84;;;18.33;
46015;BME280;36844;51.898;-0.874;2023-04-30T03:22:55;101029.16;;;18.33;
46015;BME280;36844;51.898;-0.874;2023-04-30T03:25:20;101038.41;;;18.32;
46015;BME280;36844;51.898;-0.874;2023-04-30T03:27:45;101029.56;;;18.31;
46015;BME280;36844;51.898;-0.874;2023-04-30T03:30:10;101027.63;;;18.32;
46015;BME280;36844;51.898;-0.874;2023-04-30T03:32:35;101030.31;;;18.32;
46015;BME280;36844;51.898;-0.874;2023-04-30T03:35:01;101028.78;;;18.31;
46015;BME280;36844;51.898;-0.874;2023-04-30T03:37:26;101024.53;;;18.30;
46015;BME280;36844;51.898;-0.874;2023-04-30T03:39:51;101021.06;;;18.29;
46015;BME280;36844;51.898;-0.874;2023-04-30T03:42:16;101023.75;;;18.29;
46015;BME280;36844;51.898;-0.874;2023-04-30T03:44:42;101026.88;;;18.28;
46015;BME280;36844;51.898;-0.874;2023-04-30T03:47:07;101024.91;;;18.28;
46015;BME280;36844;51.898;-0.874;2023-04-30T03:49:32;101026.88;;;18.28;
46015;BME280;36844;51.898;-0.874;2023-04-30T03:51:57;101027.22;;;18.26;
46015;BME280;36844;51.898;-0.874;2023-04-30T03:54:23;101022.59;;;18.27;
46015;BME280;36844;51.898;-0.874;2023-04-30T03:56:48;101019.91;;;18.27;
46015;BME280;36844;51.898;-0.874;2023-04-30T03:59:13;101014.88;;;18.25;
46015;BME280;36844;51.898;-0.874;2023-04-30T04:01:38;101014.88;;;18.25;
46015;BME280;36844;51.898;-0.874;2023-04-30T04:04:04;101014.88;;;18.25;
46015;BME280;36844;51.898;-0.874;2023-04-30T04:06:29;101018.00;;;18.24;
46015;BME280;36844;51.898;-0.874;2023-04-30T04:08:54;101009.91;;;18.24;
46015;BME280;36844;51.898;-0.874;2023-04-30T04:11:19;101012.59;;;18.24;
46015;BME280;36844;51.898;-0.874;2023-04-30T04:13:45;101016.44;;;18.23;
46015;BME280;36844;51.898;-0.874;2023-04-30T04:16:10;101015.66;;;18.22;
46015;BME280;36844;51.898;-0.874;2023-04-30T04:18:35;101020.28;;;18.22;
46015;BME280;36844;51.898;-0.874;2023-04-30T04:21:00;101025.66;;;18.22;
46015;BME280;36844;51.898;-0.874;2023-04-30T04:23:26;101020.28;;;18.22;
46015;BME280;36844;51.898;-0.874;2023-04-30T04:25:51;101026.81;;;18.21;
46015;BME280;36844;51.898;-0.874;2023-04-30T04:28:17;101025.31;;;18.20;
46015;BME280;36844;51.898;-0.874;2023-04-30T04:30:42;101027.22;;;18.19;
46015;BME280;36844;51.898;-0.874;2023-04-30T04:33:07;101024.53;;;18.19;
46015;BME280;36844;51.898;-0.874;2023-04-30T04:35:33;101025.66;;;18.18;
46015;BME280;36844;51.898;-0.874;2023-04-30T04:37:58;101028.75;;;18.17;
46015;BME280;36844;51.898;-0.874;2023-04-30T04:40:24;101027.56;;;18.18;
46015;BME280;36844;51.898;-0.874;2023-04-30T04:42:49;101026.03;;;18.17;
46015;BME280;36844;51.898;-0.874;2023-04-30T04:45:19;101021.81;;;18.16;
46015;BME280;36844;51.898;-0.874;2023-04-30T04:47:45;101017.97;;;18.17;
46015;BME280;36844;51.898;-0.874;2023-04-30T04:50:10;101018.34;;;18.15;
46015;BME280;36844;51.898;-0.874;2023-04-30T04:52:36;101017.56;;;18.15;
46015;BME280;36844;51.898;-0.874;2023-04-30T04:55:01;101018.69;;;18.14;
46015;BME280;36844;51.898;-0.874;2023-04-30T04:57:26;101024.88;;;18.14;
46015;BME280;36844;51.898;-0.874;2023-04-30T04:59:51;101024.09;;;18.14;
46015;BME280;36844;51.898;-0.874;2023-04-30T05:02:16;101023.34;;;18.13;
46015;BME280;36844;51.898;-0.874;2023-04-30T05:04:42;101022.59;;;18.13;
46015;BME280;36844;51.898;-0.874;2023-04-30T05:07:07;101025.28;;;18.13;
46015;BME280;36844;51.898;-0.874;2023-04-30T05:09:32;101028.00;;;18.13;
46015;BME280;36844;51.898;-0.874;2023-04-30T05:11:57;101021.03;;;18.12;
46015;BME280;36844;51.898;-0.874;2023-04-30T05:14:23;101022.94;;;18.11;
46015;BME280;36844;51.898;-0.874;2023-04-30T05:16:48;101020.66;;;18.10;
46015;BME280;36844;51.898;-0.874;2023-04-30T05:19:13;101023.72;;;18.12;
46015;BME280;36844;51.898;-0.874;2023-04-30T05:21:38;101016.78;;;18.11;
46015;BME280;36844;51.898;-0.874;2023-04-30T05:24:04;101026.03;;;18.10;
46015;BME280;36844;51.898;-0.874;2023-04-30T05:26:29;101024.50;;;18.09;
46015;BME280;36844;51.898;-0.874;2023-04-30T05:28:55;101021.81;;;18.09;
46015;BME280;36844;51.898;-0.874;2023-04-30T05:31:20;101017.56;;;18.08;
46015;BME280;36844;51.898;-0.874;2023-04-30T05:33:45;101026.03;;;18.06;
46015;BME280;36844;51.898;-0.874;2023-04-30T05:36:10;101021.78;;;18.05;
46015;BME280;36844;51.898;-0.874;2023-04-30T05:38:35;101024.09;;;18.07;
46015;BME280;36844;51.898;-0.874;2023-04-30T05:41:01;101021.38;;;18.07;
46015;BME280;36844;51.898;-0.874;2023-04-30T05:43:26;101016.38;;;18.05;
46015;BME280;36844;51.898;-0.874;2023-04-30T05:45:51;101017.16;;;18.06;
46015;BME280;36844;51.898;-0.874;2023-04-30T05:48:17;101021.38;;;18.07;
46015;BME280;36844;51.898;-0.874;2023-04-30T05:50:42;101027.19;;;18.09;
46015;BME280;36844;51.898;-0.874;2023-04-30T05:53:07;101027.19;;;18.09;
46015;BME280;36844;51.898;-0.874;2023-04-30T05:55:32;101027.19;;;18.09;
46015;BME280;36844;51.898;-0.874;2023-04-30T05:57:58;101028.34;;;18.11;
46015;BME280;36844;51.898;-0.874;2023-04-30T06:00:23;101023.34;;;18.13;
46015;BME280;36844;51.898;-0.874;2023-04-30T06:02:49;101024.09;;;18.14;
46015;BME280;36844;51.898;-0.874;2023-04-30T06:05:14;101018.72;;;18.17;
46015;BME280;36844;51.898;-0.874;2023-04-30T06:07:39;101014.50;;;18.20;
46015;BME280;36844;51.898;-0.874;2023-04-30T06:10:05;101022.59;;;18.23;
46015;BME280;36844;51.898;-0.874;2023-04-30T06:12:30;101021.84;;;18.26;
46015;BME280;36844;51.898;-0.874;2023-04-30T06:14:56;101022.63;;;18.30;
46015;BME280;36844;51.898;-0.874;2023-04-30T06:17:21;101011.84;;;18.34;
46015;BME280;36844;51.898;-0.874;2023-04-30T06:19:47;101014.53;;;18.37;
46015;BME280;36844;51.898;-0.874;2023-04-30T06:22:12;101014.53;;;18.41;
46015;BME280;36844;51.898;-0.874;2023-04-30T06:24:37;101016.84;;;18.46;
46015;BME280;36844;51.898;-0.874;2023-04-30T06:27:02;101020.31;;;18.50;
46015;BME280;36844;51.898;-0.874;2023-04-30T06:29:28;101023.78;;;18.54;
46015;BME280;36844;51.898;-0.874;2023-04-30T06:31:53;101028.41;;;18.57;
46015;BME280;36844;51.898;-0.874;2023-04-30T06:34:19;101031.88;;;18.61;
46015;BME280;36844;51.898;-0.874;2023-04-30T06:36:45;101026.47;;;18.64;
46015;BME280;36844;51.898;-0.874;2023-04-30T06:39:12;101026.13;;;18.66;
46015;BME280;36844;51.898;-0.874;2023-04-30T06:41:38;101026.13;;;18.69;
46015;BME280;36844;51.898;-0.874;2023-04-30T06:44:03;101029.97;;;18.72;
46015;BME280;36844;51.898;-0.874;2023-04-30T06:46:29;101031.88;;;18.75;
46015;BME280;36844;51.898;-0.874;2023-04-30T06:48:54;101038.06;;;18.79;
46015;BME280;36844;51.898;-0.874;2023-04-30T06:51:19;101030.38;;;18.81;
46015;BME280;36844;51.898;-0.874;2023-04-30T06:53:44;101029.59;;;18.84;
46015;BME280;36844;51.898;-0.874;2023-04-30T06:56:10;101038.81;;;18.87;
46015;BME280;36844;51.898;-0.874;2023-04-30T06:58:35;101037.69;;;18.88;
46015;BME280;36844;51.898;-0.874;2023-04-30T07:01:00;101036.13;;;18.90;
46015;BME280;36844;51.898;-0.874;2023-04-30T07:03:26;101041.91;;;18.92;
46015;BME280;36844;51.898;-0.874;2023-04-30T07:05:51;101037.66;;;18.95;
46015;BME280;36844;51.898;-0.874;2023-04-30T07:08:18;101040.75;;;18.97;
46015;BME280;36844;51.898;-0.874;2023-04-30T07:10:43;101040.38;;;18.98;
46015;BME280;36844;51.898;-0.874;2023-04-30T07:13:08;101038.06;;;19.00;
46015;BME280;36844;51.898;-0.874;2023-04-30T07:15:33;101042.28;;;19.01;
46015;BME280;36844;51.898;-0.874;2023-04-30T07:17:59;101045.38;;;19.03;
46015;BME280;36844;51.898;-0.874;2023-04-30T07:20:24;101040.75;;;19.04;
46015;BME280;36844;51.898;-0.874;2023-04-30T07:22:49;101043.81;;;19.06;
46015;BME280;36844;51.898;-0.874;2023-04-30T07:25:14;101040.72;;;19.07;
46015;BME280;36844;51.898;-0.874;2023-04-30T07:27:40;101044.22;;;19.08;
46015;BME280;36844;51.898;-0.874;2023-04-30T07:30:05;101031.84;;;19.10;
46015;BME280;36844;51.898;-0.874;2023-04-30T07:32:31;101034.97;;;19.12;
46015;BME280;36844;51.898;-0.874;2023-04-30T07:34:56;101030.28;;;19.13;
46015;BME280;36844;51.898;-0.874;2023-04-30T07:37:21;101031.84;;;19.14;
46015;BME280;36844;51.898;-0.874;2023-04-30T07:39:47;101033.41;;;19.15;
46015;BME280;36844;51.898;-0.874;2023-04-30T07:42:12;101035.69;;;19.16;
46015;BME280;36844;51.898;-0.874;2023-04-30T07:44:37;101036.44;;;19.17;
46015;BME280;36844;51.898;-0.874;2023-04-30T07:47:03;101028.00;;;19.18;
46015;BME280;36844;51.898;-0.874;2023-04-30T07:49:28;101026.06;;;19.19;
46015;BME280;36844;51.898;-0.874;2023-04-30T07:51:54;101026.84;;;19.19;
46015;BME280;36844;51.898;-0.874;2023-04-30T07:54:19;101033.78;;;19.20;
46015;BME280;36844;51.898;-0.874;2023-04-30T07:56:45;101033.38;;;19.22;
46015;BME280;36844;51.898;-0.874;2023-04-30T07:59:12;101040.69;;;19.21;
46015;BME280;36844;51.898;-0.874;2023-04-30T08:01:37;101041.09;;;19.23;
46015;BME280;36844;51.898;-0.874;2023-04-30T08:04:03;101046.50;;;19.23;
46015;BME280;36844;51.898;-0.874;2023-04-30T08:06:28;101039.16;;;19.24;
46015;BME280;36844;51.898;-0.874;2023-04-30T08:08:53;101039.91;;;19.24;
46015;BME280;36844;51.898;-0.874;2023-04-30T08:11:19;101041.47;;;19.25;
46015;BME280;36844;51.898;-0.874;2023-04-30T08:13:44;101054.19;;;19.25;
46015;BME280;36844;51.898;-0.874;2023-04-30T08:16:10;101048.78;;;19.25;
46015;BME280;36844;51.898;-0.874;2023-04-30T08:18:36;101047.66;;;19.26;
46015;BME280;36844;51.898;-0.874;2023-04-30T08:21:03;101053.06;;;19.26;
46015;BME280;36844;51.898;-0.874;2023-04-30T08:23:29;101045.72;;;19.26;
46015;BME280;36844;51.898;-0.874;2023-04-30T08:25:54;101048.44;;;19.26;
46015;BME280;36844;51.898;-0.874;2023-04-30T08:28:20;101047.25;;;19.27;
46015;BME280;36844;51.898;-0.874;2023-04-30T08:30:45;101043.78;;;19.23;
46015;BME280;36844;51.898;-0.874;2023-04-30T08:33:10;101041.47;;;19.22;
46015;BME280;36844;51.898;-0.874;2023-04-30T08:35:36;101048.44;;;19.19;
46015;BME280;36844;51.898;-0.874;2023-04-30T08:38:01;101039.56;;;19.15;
46015;BME280;36844;51.898;-0.874;2023-04-30T08:40:26;101043.78;;;19.13;
46015;BME280;36844;51.898;-0.874;2023-04-30T08:45:47;101052.69;;;19.03;
46015;BME280;36844;51.898;-0.874;2023-04-30T08:48:13;101046.50;;;18.99;
46015;BME280;36844;51.898;-0.874;2023-04-30T08:50:40;101050.00;;;18.92;
46015;BME280;36844;51.898;-0.874;2023-04-30T08:53:06;101041.53;;;18.87;
46015;BME280;36844;51.898;-0.874;2023-04-30T08:55:32;101041.16;;;18.81;
46015;BME280;36844;51.898;-0.874;2023-04-30T08:57:57;101048.50;;;18.77;
46015;BME280;36844;51.898;-0.874;2023-04-30T09:00:23;101046.16;;;18.72;
46015;BME280;36844;51.898;-0.874;2023-04-30T09:02:48;101048.06;;;18.68;
46015;BME280;36844;51.898;-0.874;2023-04-30T09:05:14;101046.53;;;18.63;
46015;BME280;36844;51.898;-0.874;2023-04-30T09:07:39;101038.06;;;18.61;
46015;BME280;36844;51.898;-0.874;2023-04-30T09:10:12;101042.69;;;18.57;
46015;BME280;36844;51.898;-0.874;2023-04-30T09:12:38;101045.38;;;18.54;
46015;BME280;36844;51.898;-0.874;2023-04-30T09:15:04;101042.28;;;18.52;
46015;BME280;36844;51.898;-0.874;2023-04-30T09:17:30;101038.41;;;18.49;
46015;BME280;36844;51.898;-0.874;2023-04-30T09:22:51;101040.38;;;18.49;
46015;BME280;36844;51.898;-0.874;2023-04-30T09:25:36;101043.47;;;18.51;
46015;BME280;36844;51.898;-0.874;2023-04-30T09:28:08;101037.28;;;18.50;
46015;BME280;36844;51.898;-0.874;2023-04-30T09:30:34;101028.03;;;18.51;
46015;BME280;36844;51.898;-0.874;2023-04-30T09:33:00;101030.31;;;18.53;
46015;BME280;36844;51.898;-0.874;2023-04-30T09:35:33;101024.56;;;18.54;
46015;BME280;36844;51.898;-0.874;2023-04-30T09:37:59;101024.19;;;18.56;
46015;BME280;36844;51.898;-0.874;2023-04-30T09:40:35;101023.78;;;18.57;
46015;BME280;36844;51.898;-0.874;2023-04-30T09:43:01;101022.66;;;18.58;
46015;BME280;36844;51.898;-0.874;2023-04-30T09:45:37;101020.31;;;18.60;
46015;BME280;36844;51.898;-0.874;2023-04-30T09:48:02;101022.66;;;18.62;
46015;BME280;36844;51.898;-0.874;2023-04-30T09:50:31;101024.19;;;18.63;
46015;BME280;36844;51.898;-0.874;2023-04-30T09:53:04;101021.88;;;18.65;
46015;BME280;36844;51.898;-0.874;2023-04-30T09:55:29;101018.03;;;18.66;
46015;BME280;36844;51.898;-0.874;2023-04-30T09:57:55;101019.53;;;18.67;
46015;BME280;36844;51.898;-0.874;2023-04-30T10:00:20;101018.38;;;18.68;
46015;BME280;36844;51.898;-0.874;2023-04-30T10:02:45;101023.44;;;18.69;
46015;BME280;36844;51.898;-0.874;2023-04-30T10:05:11;101023.00;;;18.71;
46015;BME280;36844;51.898;-0.874;2023-04-30T10:07:36;101026.47;;;18.71;
46015;BME280;36844;51.898;-0.874;2023-04-30T10:10:03;101028.03;;;18.72;
46015;BME280;36844;51.898;-0.874;2023-04-30T10:12:45;101026.91;;;18.73;
46015;BME280;36844;51.898;-0.874;2023-04-30T10:15:25;101019.59;;;18.74;
46015;BME280;36844;51.898;-0.874;2023-04-30T10:17:56;101021.09;;;18.75;
46015;BME280;36844;51.898;-0.874;2023-04-30T10:20:24;101016.09;;;18.77;
46015;BME280;36844;51.898;-0.874;2023-04-30T10:22:50;101015.31;;;18.77;
46015;BME280;36844;51.898;-0.874;2023-04-30T10:25:16;101012.97;;;18.78;
46015;BME280;36844;51.898;-0.874;2023-04-30T10:27:41;101014.53;;;18.80;
46015;BME280;36844;51.898;-0.874;2023-04-30T10:30:08;101012.63;;;18.80;
46015;BME280;36844;51.898;-0.874;2023-04-30T10:32:37;101016.88;;;18.81;
46015;BME280;36844;51.898;-0.874;2023-04-30T10:37:35;101011.47;;;18.81;
46015;BME280;36844;51.898;-0.874;2023-04-30T10:40:02;101009.53;;;18.82;
46015;BME280;36844;51.898;-0.874;2023-04-30T10:42:29;101006.06;;;18.81;
46015;BME280;36844;51.898;-0.874;2023-04-30T10:44:54;100997.22;;;18.81;
46015;BME280;36844;51.898;-0.874;2023-04-30T10:47:26;101006.06;;;18.81;
46015;BME280;36844;51.898;-0.874;2023-04-30T10:49:52;100997.97;;;18.81;
46015;BME280;36844;51.898;-0.874;2023-04-30T10:52:26;100994.09;;;18.82;
46015;BME280;36844;51.898;-0.874;2023-04-30T10:54:52;100990.63;;;18.82;
46015;BME280;36844;51.898;-0.874;2023-04-30T10:57:18;100984.50;;;18.81;
46015;BME280;36844;51.898;-0.874;2023-04-30T10:59:51;100988.69;;;18.82;
46015;BME280;36844;51.898;-0.874;2023-04-30T11:02:17;100990.63;;;18.82;
46015;BME280;36844;51.898;-0.874;2023-04-30T11:07:48;100977.88;;;18.82;
46015;BME280;36844;51.898;-0.874;2023-04-30T11:10:14;100973.28;;;18.83;
46015;BME280;36844;51.898;-0.874;2023-04-30T11:12:40;100974.81;;;18.84;
46015;BME280;36844;51.898;-0.874;2023-04-30T11:15:06;100963.25;;;18.83;
46015;BME280;36844;51.898;-0.874;2023-04-30T11:17:36;100959.41;;;18.84;
46015;BME280;36844;51.898;-0.874;2023-04-30T11:20:01;100959.41;;;18.84;
46015;BME280;36844;51.898;-0.874;2023-04-30T11:22:27;100965.56;;;18.85;
46015;BME280;36844;51.898;-0.874;2023-04-30T11:25:09;100954.38;;;18.86;
46015;BME280;36844;51.898;-0.874;2023-04-30T11:27:36;100955.53;;;18.85;
46015;BME280;36844;51.898;-0.874;2023-04-30T11:30:02;100948.22;;;18.86;
46015;BME280;36844;51.898;-0.874;2023-04-30T11:32:32;100950.53;;;18.87;
46015;BME280;36844;51.898;-0.874;2023-04-30T11:34:59;100955.16;;;18.87;
46015;BME280;36844;51.898;-0.874;2023-04-30T11:37:33;100945.13;;;18.87;
46015;BME280;36844;51.898;-0.874;2023-04-30T11:40:00;100943.22;;;18.88;
46015;BME280;36844;51.898;-0.874;2023-04-30T11:42:26;100942.44;;;18.87;
46015;BME280;36844;51.898;-0.874;2023-04-30T11:44:51;100943.97;;;18.88;
46015;BME280;36844;51.898;-0.874;2023-04-30T11:47:16;100935.13;;;18.88;
46015;BME280;36844;51.898;-0.874;2023-04-30T11:49:42;100933.16;;;18.88;
46015;BME280;36844;51.898;-0.874;2023-04-30T11:52:07;100934.31;;;18.87;
46015;BME280;36844;51.898;-0.874;2023-04-30T11:54:36;100937.03;;;18.87;
46015;BME280;36844;51.898;-0.874;2023-04-30T11:57:02;100927.75;;;18.88;
46015;BME280;36844;51.898;-0.874;2023-04-30T11:59:28;100933.16;;;18.88;
46015;BME280;36844;51.898;-0.874;2023-04-30T12:01:53;100927.00;;;18.88;
46015;BME280;36844;51.898;-0.874;2023-04-30T12:04:19;100923.53;;;18.87;
46015;BME280;36844;51.898;-0.874;2023-04-30T12:06:44;100927.00;;;18.88;
46015;BME280;36844;51.898;-0.874;2023-04-30T12:09:09;100928.94;;;18.87;
46015;BME280;36844;51.898;-0.874;2023-04-30T12:11:36;100927.00;;;18.88;
46015;BME280;36844;51.898;-0.874;2023-04-30T12:14:02;100927.75;;;18.88;
46015;BME280;36844;51.898;-0.874;2023-04-30T12:16:37;100921.63;;;18.88;
46015;BME280;36844;51.898;-0.874;2023-04-30T12:19:02;100920.84;;;18.87;
46015;BME280;36844;51.898;-0.874;2023-04-30T12:21:28;100918.91;;;18.88;
46015;BME280;36844;51.898;-0.874;2023-04-30T12:23:53;100918.13;;;18.87;
46015;BME280;36844;51.898;-0.874;2023-04-30T12:26:18;100920.84;;;18.87;
46015;BME280;36844;51.898;-0.874;2023-04-30T12:28:45;100915.44;;;18.87;
46015;BME280;36844;51.898;-0.874;2023-04-30T12:31:11;100910.81;;;18.88;
46015;BME280;36844;51.898;-0.874;2023-04-30T12:33:36;100912.75;;;18.87;
46015;BME280;36844;51.898;-0.874;2023-04-30T12:36:01;100915.44;;;18.87;
46015;BME280;36844;51.898;-0.874;2023-04-30T12:38:26;100914.66;;;18.87;
46015;BME280;36844;51.898;-0.874;2023-04-30T12:40:52;100908.47;;;18.86;
46015;BME280;36844;51.898;-0.874;2023-04-30T12:43:17;100905.41;;;18.88;
46015;BME280;36844;51.898;-0.874;2023-04-30T12:45:43;100902.72;;;18.88;
46015;BME280;36844;51.898;-0.874;2023-04-30T12:48:09;100910.03;;;18.87;
46015;BME280;36844;51.898;-0.874;2023-04-30T12:50:34;100907.34;;;18.87;
46015;BME280;36844;51.898;-0.874;2023-04-30T12:53:03;100912.75;;;18.87;
46015;BME280;36844;51.898;-0.874;2023-04-30T12:55:29;100908.13;;;18.88;
46015;BME280;36844;51.898;-0.874;2023-04-30T12:58:04;100910.03;;;18.87;
46015;BME280;36844;51.898;-0.874;2023-04-30T13:00:43;100910.03;;;18.87;
46015;BME280;36844;51.898;-0.874;2023-04-30T13:03:09;100905.78;;;18.86;
46015;BME280;36844;51.898;-0.874;2023-04-30T13:05:34;100901.16;;;18.87;
46015;BME280;36844;51.898;-0.874;2023-04-30T13:08:02;100895.75;;;18.87;
46015;BME280;36844;51.898;-0.874;2023-04-30T13:10:30;100899.25;;;18.87;
46015;BME280;36844;51.898;-0.874;2023-04-30T13:12:55;100900.03;;;18.88;
46015;BME280;36844;51.898;-0.874;2023-04-30T13:15:20;100899.25;;;18.87;
46015;BME280;36844;51.898;-0.874;2023-04-30T13:17:46;100898.47;;;18.87;
46015;BME280;36844;51.898;-0.874;2023-04-30T13:20:11;100892.66;;;18.88;
46015;BME280;36844;51.898;-0.874;2023-04-30T13:22:36;100889.59;;;18.86;
46015;BME280;36844;51.898;-0.874;2023-04-30T13:25:01;100888.44;;;18.87;
46015;BME280;36844;51.898;-0.874;2023-04-30T13:27:27;100886.88;;;18.86;
46015;BME280;36844;51.898;-0.874;2023-04-30T13:29:52;100885.75;;;18.87;
46015;BME280;36844;51.898;-0.874;2023-04-30T13:32:17;100883.03;;;18.87;
46015;BME280;36844;51.898;-0.874;2023-04-30T13:34:42;100879.56;;;18.87;
46015;BME280;36844;51.898;-0.874;2023-04-30T13:37:08;100879.16;;;18.88;
46015;BME280;36844;51.898;-0.874;2023-04-30T13:39:34;100884.56;;;18.88;
46015;BME280;36844;51.898;-0.874;2023-04-30T13:41:59;100881.13;;;18.88;
46015;BME280;36844;51.898;-0.874;2023-04-30T13:44:25;100881.88;;;18.88;
46015;BME280;36844;51.898;-0.874;2023-04-30T13:46:50;100884.56;;;18.88;
46015;BME280;36844;51.898;-0.874;2023-04-30T13:49:15;100880.34;;;18.87;
46015;BME280;36844;51.898;-0.874;2023-04-30T13:51:41;100874.94;;;18.87;